sensor_id;sensor_type;location;lat;lon;timestamp;pressure;altitude;pressure_sealevel;temperature;humidity
34931;BME280;21134;49.646;8.560;2023-03-16T00:01:45;100986.47;;;-0.10;100.00
34931;BME280;21134;49.646;8.560;2023-03-16T00:04:12;100980.03;;;-0.05;100.00
34931;BME280;21134;49.646;8.560;2023-03-16T00:06:38;100985.31;;;0.00;100.00
34931;BME280;21134;49.646;8.560;2023-03-16T00:09:05;100997.88;;;0.00;99.80
34931;BME280;21134;49.646;8.560;2023-03-16T00:11:31;100992.03;;;0.01;100.00
34931;BME280;21134;49.646;8.560;2023-03-16T00:13:59;100988.59;;;-0.01;100.00
34931;BME280;21134;49.646;8.560;2023-03-16T00:16:28;100980.19;;;-0.02;100.00
34931;BME280;21134;49.646;8.560;2023-03-16T00:18:54;100982.47;;;-0.06;99.81
34931;BME280;21134;49.646;8.560;2023-03-16T00:21:23;100980.41;;;-0.13;99.97
34931;BME280;21134;49.646;8.560;2023-03-16T00:23:50;100991.22;;;-0.16;100.00
34931;BME280;21134;49.646;8.560;2023-03-16T00:26:17;100989.41;;;-0.18;100.00
34931;BME280;21134;49.646;8.560;2023-03-16T00:28:44;100985.28;;;-0.16;100.00
34931;BME280;21134;49.646;8.560;2023-03-16T00:31:12;100991.06;;;-0.19;100.00
34931;BME280;21134;49.646;8.560;2023-03-16T00:33:39;100978.41;;;-0.20;100.00
34931;BME280;21134;49.646;8.560;2023-03-16T00:36:07;100984.22;;;-0.21;100.00
34931;BME280;21134;49.646;8.560;2023-03-16T00:38:37;100977.38;;;-0.24;100.00
34931;BME280;21134;49.646;8.560;2023-03-16T00:41:05;100973.06;;;-0.27;100.00
34931;BME280;21134;49.646;8.560;2023-03-16T00:43:35;100974.00;;;-0.25;100.00
34931;BME280;21134;49.646;8.560;2023-03-16T00:46:06;100966.38;;;-0.26;100.00
34931;BME280;21134;49.646;8.560;2023-03-16T00:48:35;100967.97;;;-0.28;100.00
34931;BME280;21134;49.646;8.560;2023-03-16T00:51:03;100973.00;;;-0.28;99.86
34931;BME280;21134;49.646;8.560;2023-03-16T00:53:31;100969.31;;;-0.35;100.00
34931;BME280;21134;49.646;8.560;2023-03-16T00:55:58;100969.75;;;-0.26;99.55
34931;BME280;21134;49.646;8.560;2023-03-16T00:58:28;100969.75;;;-0.26;99.95
34931;BME280;21134;49.646;8.560;2023-03-16T01:01:00;100967.09;;;-0.29;99.16
34931;BME280;21134;49.646;8.560;2023-03-16T01:03:26;100968.34;;;-0.20;98.84
34931;BME280;21134;49.646;8.560;2023-03-16T01:05:54;100968.66;;;-0.31;98.79
34931;BME280;21134;49.646;8.560;2023-03-16T01:08:24;100961.19;;;-0.29;98.41
34931;BME280;21134;49.646;8.560;2023-03-16T01:10:52;100963.22;;;-0.38;98.85
34931;BME280;21134;49.646;8.560;2023-03-16T01:13:19;100952.25;;;-0.40;98.87
34931;BME280;21134;49.646;8.560;2023-03-16T01:15:46;100942.53;;;-0.51;98.71
34931;BME280;21134;49.646;8.560;2023-03-16T01:18:12;100947.41;;;-0.54;99.41
34931;BME280;21134;49.646;8.560;2023-03-16T01:20:39;100948.56;;;-0.47;99.79
34931;BME280;21134;49.646;8.560;2023-03-16T01:23:09;100954.53;;;-0.45;99.33
34931;BME280;21134;49.646;8.560;2023-03-16T01:25:35;100960.13;;;-0.51;99.53
34931;BME280;21134;49.646;8.560;2023-03-16T01:28:01;100952.50;;;-0.52;99.12
34931;BME280;21134;49.646;8.560;2023-03-16T01:30:28;100959.09;;;-0.54;99.58
34931;BME280;21134;49.646;8.560;2023-03-16T01:32:54;100958.94;;;-0.57;99.59
34931;BME280;21134;49.646;8.560;2023-03-16T01:35:21;100952.44;;;-0.54;99.73
34931;BME280;21134;49.646;8.560;2023-03-16T01:37:48;100949.66;;;-0.42;99.97
34931;BME280;21134;49.646;8.560;2023-03-16T01:40:17;100952.63;;;-0.33;99.04
34931;BME280;21134;49.646;8.560;2023-03-16T01:42:45;100961.53;;;-0.39;98.98
34931;BME280;21134;49.646;8.560;2023-03-16T01:48:17;100937.09;;;-0.42;98.87
34931;BME280;21134;49.646;8.560;2023-03-16T01:50:44;100942.59;;;-0.49;98.85
34931;BME280;21134;49.646;8.560;2023-03-16T01:53:10;100939.28;;;-0.48;98.96
34931;BME280;21134;49.646;8.560;2023-03-16T01:55:39;100939.28;;;-0.48;99.21
34931;BME280;21134;49.646;8.560;2023-03-16T01:58:07;100932.63;;;-0.48;98.75
34931;BME280;21134;49.646;8.560;2023-03-16T02:00:33;100926.56;;;-0.51;99.26
34931;BME280;21134;49.646;8.560;2023-03-16T02:03:05;100921.53;;;-0.51;98.48
34931;BME280;21134;49.646;8.560;2023-03-16T02:05:37;100925.81;;;-0.50;97.62
34931;BME280;21134;49.646;8.560;2023-03-16T02:08:07;100925.34;;;-0.59;98.23
34931;BME280;21134;49.646;8.560;2023-03-16T02:10:35;100936.94;;;-0.61;98.54
34931;BME280;21134;49.646;8.560;2023-03-16T02:13:04;100925.88;;;-0.65;97.84
34931;BME280;21134;49.646;8.560;2023-03-16T02:15:30;100922.13;;;-0.73;98.62
34931;BME280;21134;49.646;8.560;2023-03-16T02:18:00;100916.06;;;-0.77;99.17
34931;BME280;21134;49.646;8.560;2023-03-16T02:20:33;100914.28;;;-0.79;99.64
34931;BME280;21134;49.646;8.560;2023-03-16T02:23:04;100909.84;;;-0.83;99.37
34931;BME280;21134;49.646;8.560;2023-03-16T02:25:37;100907.28;;;-0.85;99.73
34931;BME280;21134;49.646;8.560;2023-03-16T02:28:14;100903.22;;;-0.83;99.77
34931;BME280;21134;49.646;8.560;2023-03-16T02:30:45;100901.28;;;-0.87;99.53
34931;BME280;21134;49.646;8.560;2023-03-16T02:33:13;100907.97;;;-0.87;100.00
34931;BME280;21134;49.646;8.560;2023-03-16T02:35:40;100908.84;;;-0.87;99.78
34931;BME280;21134;49.646;8.560;2023-03-16T02:38:07;100898.03;;;-0.86;100.00
34931;BME280;21134;49.646;8.560;2023-03-16T02:40:34;100899.81;;;-0.83;100.00
34931;BME280;21134;49.646;8.560;2023-03-16T02:43:04;100888.91;;;-0.84;100.00
34931;BME280;21134;49.646;8.560;2023-03-16T02:45:35;100885.47;;;-0.86;99.93
34931;BME280;21134;49.646;8.560;2023-03-16T02:48:08;100894.19;;;-0.79;100.00
34931;BME280;21134;49.646;8.560;2023-03-16T02:50:43;100890.00;;;-0.79;100.00
34931;BME280;21134;49.646;8.560;2023-03-16T02:53:11;100886.22;;;-0.71;100.00
34931;BME280;21134;49.646;8.560;2023-03-16T02:55:37;100882.94;;;-0.69;100.00
34931;BME280;21134;49.646;8.560;2023-03-16T02:58:04;100881.28;;;-0.69;100.00
34931;BME280;21134;49.646;8.560;2023-03-16T03:00:30;100876.00;;;-0.74;100.00
34931;BME280;21134;49.646;8.560;2023-03-16T03:02:57;100875.25;;;-0.73;99.51
34931;BME280;21134;49.646;8.560;2023-03-16T03:05:25;100870.94;;;-0.75;99.82
34931;BME280;21134;49.646;8.560;2023-03-16T03:07:51;100869.44;;;-0.72;98.93
34931;BME280;21134;49.646;8.560;2023-03-16T03:10:18;100868.19;;;-0.80;99.51
34931;BME280;21134;49.646;8.560;2023-03-16T03:12:46;100862.91;;;-0.84;99.10
34931;BME280;21134;49.646;8.560;2023-03-16T03:15:14;100860.19;;;-0.89;100.00
34931;BME280;21134;49.646;8.560;2023-03-16T03:17:41;100860.19;;;-0.89;99.86
34931;BME280;21134;49.646;8.560;2023-03-16T03:20:09;100857.44;;;-0.94;100.00
34931;BME280;21134;49.646;8.560;2023-03-16T03:22:42;100857.53;;;-0.92;100.00
34931;BME280;21134;49.646;8.560;2023-03-16T03:25:10;100860.03;;;-0.92;100.00
34931;BME280;21134;49.646;8.560;2023-03-16T03:27:38;100870.09;;;-0.92;100.00
34931;BME280;21134;49.646;8.560;2023-03-16T03:30:05;100863.56;;;-0.88;100.00
34931;BME280;21134;49.646;8.560;2023-03-16T03:32:32;100863.31;;;-0.93;100.00
34931;BME280;21134;49.646;8.560;2023-03-16T03:34:58;100855.31;;;-0.86;100.00
34931;BME280;21134;49.646;8.560;2023-03-16T03:37:25;100855.22;;;-0.87;100.00
34931;BME280;21134;49.646;8.560;2023-03-16T03:39:54;100858.69;;;-0.85;100.00
34931;BME280;21134;49.646;8.560;2023-03-16T03:42:20;100857.34;;;-0.79;100.00
34931;BME280;21134;49.646;8.560;2023-03-16T03:44:48;100843.53;;;-0.87;100.00
34931;BME280;21134;49.646;8.560;2023-03-16T03:47:15;100843.19;;;-0.77;100.00
34931;BME280;21134;49.646;8.560;2023-03-16T03:49:41;100841.97;;;-0.85;100.00
34931;BME280;21134;49.646;8.560;2023-03-16T03:52:08;100844.69;;;-0.80;99.94
34931;BME280;21134;49.646;8.560;2023-03-16T03:54:35;100852.72;;;-0.87;100.00
34931;BME280;21134;49.646;8.560;2023-03-16T03:57:03;100850.22;;;-0.87;98.96
34931;BME280;21134;49.646;8.560;2023-03-16T03:59:30;100849.72;;;-0.97;99.97
34931;BME280;21134;49.646;8.560;2023-03-16T04:01:56;100847.47;;;-0.92;99.75
34931;BME280;21134;49.646;8.560;2023-03-16T04:04:23;100849.69;;;-0.98;99.94
34931;BME280;21134;49.646;8.560;2023-03-16T04:06:50;100860.09;;;-0.90;99.72
34931;BME280;21134;49.646;8.560;2023-03-16T04:09:16;100854.06;;;-0.94;100.00
34931;BME280;21134;49.646;8.560;2023-03-16T04:11:43;100851.16;;;-1.02;99.35
34931;BME280;21134;49.646;8.560;2023-03-16T04:14:11;100851.06;;;-1.03;99.54
34931;BME280;21134;49.646;8.560;2023-03-16T04:16:37;100861.50;;;-1.12;99.39
34931;BME280;21134;49.646;8.560;2023-03-16T04:19:04;100857.91;;;-1.17;99.42
34931;BME280;21134;49.646;8.560;2023-03-16T04:21:30;100862.94;;;-1.17;100.00
34931;BME280;21134;49.646;8.560;2023-03-16T04:23:57;100861.81;;;-1.22;99.81
34931;BME280;21134;49.646;8.560;2023-03-16T04:26:23;100853.34;;;-1.24;100.00
34931;BME280;21134;49.646;8.560;2023-03-16T04:28:50;100861.75;;;-1.24;100.00
34931;BME280;21134;49.646;8.560;2023-03-16T04:31:19;100854.28;;;-1.22;100.00
34931;BME280;21134;49.646;8.560;2023-03-16T04:33:45;100853.69;;;-1.18;100.00
34931;BME280;21134;49.646;8.560;2023-03-16T04:36:12;100851.56;;;-1.10;100.00
34931;BME280;21134;49.646;8.560;2023-03-16T04:38:38;100852.41;;;-1.10;100.00
34931;BME280;21134;49.646;8.560;2023-03-16T04:41:06;100853.19;;;-1.11;99.95
34931;BME280;21134;49.646;8.560;2023-03-16T04:43:32;100853.03;;;-1.14;100.00
34931;BME280;21134;49.646;8.560;2023-03-16T04:45:59;100847.22;;;-1.13;100.00
34931;BME280;21134;49.646;8.560;2023-03-16T04:48:28;100848.25;;;-1.09;100.00
34931;BME280;21134;49.646;8.560;2023-03-16T04:50:55;100848.25;;;-1.09;99.27
34931;BME280;21134;49.646;8.560;2023-03-16T04:53:21;100856.94;;;-1.03;100.00
34931;BME280;21134;49.646;8.560;2023-03-16T04:55:48;100851.31;;;-0.99;99.29
34931;BME280;21134;49.646;8.560;2023-03-16T04:58:14;100856.19;;;-1.02;99.51
34931;BME280;21134;49.646;8.560;2023-03-16T05:00:41;100850.06;;;-1.07;99.11
34931;BME280;21134;49.646;8.560;2023-03-16T05:03:08;100853.97;;;-1.12;99.02
34931;BME280;21134;49.646;8.560;2023-03-16T05:05:37;100852.25;;;-1.13;99.23
34931;BME280;21134;49.646;8.560;2023-03-16T05:08:04;100837.88;;;-1.15;100.00
34931;BME280;21134;49.646;8.560;2023-03-16T05:10:31;100842.91;;;-1.15;99.73
34931;BME280;21134;49.646;8.560;2023-03-16T05:12:59;100841.81;;;-1.04;99.86
34931;BME280;21134;49.646;8.560;2023-03-16T05:15:26;100840.09;;;-1.05;99.83
34931;BME280;21134;49.646;8.560;2023-03-16T05:17:53;100846.75;;;-1.06;99.95
34931;BME280;21134;49.646;8.560;2023-03-16T05:20:20;100839.69;;;-0.97;99.62
34931;BME280;21134;49.646;8.560;2023-03-16T05:22:48;100847.16;;;-0.98;99.54
34931;BME280;21134;49.646;8.560;2023-03-16T05:25:16;100857.28;;;-0.97;99.63
34931;BME280;21134;49.646;8.560;2023-03-16T05:27:44;100847.31;;;-0.95;99.51
34931;BME280;21134;49.646;8.560;2023-03-16T05:30:12;100852.34;;;-0.95;99.45
34931;BME280;21134;49.646;8.560;2023-03-16T05:32:41;100855.41;;;-1.01;99.72
34931;BME280;21134;49.646;8.560;2023-03-16T05:35:08;100847.53;;;-1.07;99.96
34931;BME280;21134;49.646;8.560;2023-03-16T05:37:37;100833.34;;;-1.06;99.25
34931;BME280;21134;49.646;8.560;2023-03-16T05:40:07;100832.31;;;-1.10;99.72
34931;BME280;21134;49.646;8.560;2023-03-16T05:42:41;100826.34;;;-1.12;100.00
34931;BME280;21134;49.646;8.560;2023-03-16T05:45:08;100828.31;;;-1.06;100.00
34931;BME280;21134;49.646;8.560;2023-03-16T05:47:35;100815.91;;;-1.03;100.00
34931;BME280;21134;49.646;8.560;2023-03-16T05:50:02;100820.25;;;-1.01;100.00
34931;BME280;21134;49.646;8.560;2023-03-16T05:52:29;100814.66;;;-0.95;100.00
34931;BME280;21134;49.646;8.560;2023-03-16T05:54:56;100815.59;;;-0.93;100.00
34931;BME280;21134;49.646;8.560;2023-03-16T05:57:24;100811.59;;;-0.89;100.00
34931;BME280;21134;49.646;8.560;2023-03-16T05:59:51;100810.13;;;-0.86;100.00
34931;BME280;21134;49.646;8.560;2023-03-16T06:02:18;100810.34;;;-0.81;100.00
34931;BME280;21134;49.646;8.560;2023-03-16T06:04:44;100802.31;;;-0.74;100.00
34931;BME280;21134;49.646;8.560;2023-03-16T06:07:11;100800.91;;;-0.69;100.00
34931;BME280;21134;49.646;8.560;2023-03-16T06:09:37;100801.84;;;-0.67;100.00
34931;BME280;21134;49.646;8.560;2023-03-16T06:12:04;100804.47;;;-0.64;100.00
34931;BME280;21134;49.646;8.560;2023-03-16T06:14:32;100794.00;;;-0.55;99.60
34931;BME280;21134;49.646;8.560;2023-03-16T06:16:58;100798.97;;;-0.57;100.00
34931;BME280;21134;49.646;8.560;2023-03-16T06:19:25;100798.28;;;-0.54;100.00
34931;BME280;21134;49.646;8.560;2023-03-16T06:21:51;100797.53;;;-0.52;100.00
34931;BME280;21134;49.646;8.560;2023-03-16T06:24:18;100796.03;;;-0.48;100.00
34931;BME280;21134;49.646;8.560;2023-03-16T06:26:45;100797.97;;;-0.42;99.85
34931;BME280;21134;49.646;8.560;2023-03-16T06:29:11;100801.59;;;-0.37;100.00
34931;BME280;21134;49.646;8.560;2023-03-16T06:31:39;100794.25;;;-0.33;100.00
34931;BME280;21134;49.646;8.560;2023-03-16T06:34:06;100808.84;;;-0.26;100.00
34931;BME280;21134;49.646;8.560;2023-03-16T06:36:32;100802.38;;;-0.20;100.00
34931;BME280;21134;49.646;8.560;2023-03-16T06:38:59;100808.13;;;-0.05;100.00
34931;BME280;21134;49.646;8.560;2023-03-16T06:41:25;100806.72;;;0.00;100.00
34931;BME280;21134;49.646;8.560;2023-03-16T06:43:52;100805.25;;;0.05;100.00
34931;BME280;21134;49.646;8.560;2023-03-16T06:46:18;100807.41;;;0.15;100.00
34931;BME280;21134;49.646;8.560;2023-03-16T06:48:46;100807.81;;;0.25;100.00
34931;BME280;21134;49.646;8.560;2023-03-16T06:51:13;100810.09;;;0.38;100.00
34931;BME280;21134;49.646;8.560;2023-03-16T06:53:39;100808.84;;;0.47;100.00
34931;BME280;21134;49.646;8.560;2023-03-16T06:56:06;100804.31;;;0.58;100.00
34931;BME280;21134;49.646;8.560;2023-03-16T06:58:33;100805.59;;;0.68;100.00
34931;BME280;21134;49.646;8.560;2023-03-16T07:01:00;100814.53;;;0.81;100.00
34931;BME280;21134;49.646;8.560;2023-03-16T07:03:27;100806.75;;;0.96;100.00
34931;BME280;21134;49.646;8.560;2023-03-16T07:05:55;100809.06;;;1.10;100.00
34931;BME280;21134;49.646;8.560;2023-03-16T07:08:22;100809.63;;;1.24;100.00
34931;BME280;21134;49.646;8.560;2023-03-16T07:10:49;100817.72;;;1.36;100.00
34931;BME280;21134;49.646;8.560;2023-03-16T07:13:16;100817.38;;;1.48;100.00
34931;BME280;21134;49.646;8.560;2023-03-16T07:15:42;100817.91;;;1.62;100.00
34931;BME280;21134;49.646;8.560;2023-03-16T07:18:09;100816.81;;;1.76;100.00
34931;BME280;21134;49.646;8.560;2023-03-16T07:20:37;100813.69;;;1.82;100.00
34931;BME280;21134;49.646;8.560;2023-03-16T07:23:05;100812.50;;;1.95;100.00
34931;BME280;21134;49.646;8.560;2023-03-16T07:25:31;100816.25;;;2.04;100.00
34931;BME280;21134;49.646;8.560;2023-03-16T07:27:58;100816.69;;;2.17;100.00
34931;BME280;21134;49.646;8.560;2023-03-16T07:30:24;100822.81;;;2.23;100.00
34931;BME280;21134;49.646;8.560;2023-03-16T07:32:51;100818.66;;;2.24;100.00
34931;BME280;21134;49.646;8.560;2023-03-16T07:35:17;100821.44;;;2.30;99.95
34931;BME280;21134;49.646;8.560;2023-03-16T07:37:44;100819.81;;;2.32;100.00
34931;BME280;21134;49.646;8.560;2023-03-16T07:40:13;100820.97;;;2.40;100.00
34931;BME280;21134;49.646;8.560;2023-03-16T07:42:40;100820.53;;;2.52;100.00
34931;BME280;21134;49.646;8.560;2023-03-16T07:45:08;100827.00;;;2.68;100.00
34931;BME280;21134;49.646;8.560;2023-03-16T07:47:35;100825.78;;;2.80;100.00
34931;BME280;21134;49.646;8.560;2023-03-16T07:50:03;100823.81;;;2.96;100.00
34931;BME280;21134;49.646;8.560;2023-03-16T07:52:30;100821.81;;;3.11;99.62
34931;BME280;21134;49.646;8.560;2023-03-16T07:54:56;100813.69;;;3.20;98.03
34931;BME280;21134;49.646;8.560;2023-03-16T07:57:24;100816.75;;;3.35;98.51
34931;BME280;21134;49.646;8.560;2023-03-16T07:59:50;100810.56;;;3.53;98.13
34931;BME280;21134;49.646;8.560;2023-03-16T08:02:18;100808.66;;;3.72;96.57
34931;BME280;21134;49.646;8.560;2023-03-16T08:04:45;100805.09;;;3.93;95.70
34931;BME280;21134;49.646;8.560;2023-03-16T08:07:13;100801.38;;;4.09;94.05
34931;BME280;21134;49.646;8.560;2023-03-16T08:09:40;100810.50;;;4.32;91.15
34931;BME280;21134;49.646;8.560;2023-03-16T08:12:08;100802.50;;;4.47;89.54
34931;BME280;21134;49.646;8.560;2023-03-16T08:14:36;100798.00;;;4.69;86.82
34931;BME280;21134;49.646;8.560;2023-03-16T08:17:04;100794.94;;;4.79;87.36
34931;BME280;21134;49.646;8.560;2023-03-16T08:19:32;100800.44;;;4.96;85.85
34931;BME280;21134;49.646;8.560;2023-03-16T08:21:59;100796.34;;;5.01;86.30
34931;BME280;21134;49.646;8.560;2023-03-16T08:24:26;100800.13;;;5.17;85.62
34931;BME280;21134;49.646;8.560;2023-03-16T08:26:53;100796.09;;;5.23;84.92
34931;BME280;21134;49.646;8.560;2023-03-16T08:29:20;100795.47;;;5.32;83.97
34931;BME280;21134;49.646;8.560;2023-03-16T08:31:48;100798.47;;;5.52;82.70
34931;BME280;21134;49.646;8.560;2023-03-16T08:34:14;100808.84;;;5.59;81.71
34931;BME280;21134;49.646;8.560;2023-03-16T08:36:42;100808.31;;;5.73;81.30
34931;BME280;21134;49.646;8.560;2023-03-16T08:39:08;100814.31;;;5.76;81.91
34931;BME280;21134;49.646;8.560;2023-03-16T08:41:35;100810.38;;;5.89;80.34
34931;BME280;21134;49.646;8.560;2023-03-16T08:44:02;100803.00;;;5.97;79.15
34931;BME280;21134;49.646;8.560;2023-03-16T08:46:28;100804.75;;;6.01;79.72
34931;BME280;21134;49.646;8.560;2023-03-16T08:48:56;100793.34;;;6.21;78.72
34931;BME280;21134;49.646;8.560;2023-03-16T08:51:23;100791.25;;;6.43;77.97
34931;BME280;21134;49.646;8.560;2023-03-16T08:53:49;100785.25;;;6.39;78.17
34931;BME280;21134;49.646;8.560;2023-03-16T08:56:17;100791.13;;;6.37;78.02
34931;BME280;21134;49.646;8.560;2023-03-16T08:58:43;100786.31;;;6.49;78.31
34931;BME280;21134;49.646;8.560;2023-03-16T09:01:11;100785.53;;;6.51;78.37
34931;BME280;21134;49.646;8.560;2023-03-16T09:03:38;100791.19;;;6.40;77.69
34931;BME280;21134;49.646;8.560;2023-03-16T09:06:09;100781.13;;;6.44;78.54
34931;BME280;21134;49.646;8.560;2023-03-16T09:08:38;100785.97;;;6.32;76.56
34931;BME280;21134;49.646;8.560;2023-03-16T09:11:06;100783.59;;;6.41;76.69
34931;BME280;21134;49.646;8.560;2023-03-16T09:13:33;100782.44;;;6.68;77.95
34931;BME280;21134;49.646;8.560;2023-03-16T09:16:00;100782.53;;;6.72;76.57
34931;BME280;21134;49.646;8.560;2023-03-16T09:18:27;100780.34;;;6.91;76.08
34931;BME280;21134;49.646;8.560;2023-03-16T09:20:56;100789.91;;;7.03;75.09
34931;BME280;21134;49.646;8.560;2023-03-16T09:23:24;100784.97;;;7.13;75.58
34931;BME280;21134;49.646;8.560;2023-03-16T09:25:52;100776.84;;;7.33;73.23
34931;BME280;21134;49.646;8.560;2023-03-16T09:28:18;100780.53;;;7.52;73.22
34931;BME280;21134;49.646;8.560;2023-03-16T09:30:45;100779.44;;;7.36;72.46
34931;BME280;21134;49.646;8.560;2023-03-16T09:33:11;100778.78;;;7.49;71.86
34931;BME280;21134;49.646;8.560;2023-03-16T09:35:38;100773.69;;;7.48;71.27
34931;BME280;21134;49.646;8.560;2023-03-16T09:38:04;100765.97;;;7.43;71.54
34931;BME280;21134;49.646;8.560;2023-03-16T09:40:33;100777.41;;;7.68;71.99
34931;BME280;21134;49.646;8.560;2023-03-16T09:43:13;100775.78;;;7.75;69.42
34931;BME280;21134;49.646;8.560;2023-03-16T09:45:48;100772.34;;;7.71;69.04
34931;BME280;21134;49.646;8.560;2023-03-16T09:48:19;100765.03;;;7.92;69.88
34931;BME280;21134;49.646;8.560;2023-03-16T09:50:47;100767.53;;;7.89;68.63
34931;BME280;21134;49.646;8.560;2023-03-16T09:53:17;100759.94;;;7.94;69.37
34931;BME280;21134;49.646;8.560;2023-03-16T09:55:52;100760.06;;;8.03;69.55
34931;BME280;21134;49.646;8.560;2023-03-16T09:58:21;100755.16;;;8.14;67.97
34931;BME280;21134;49.646;8.560;2023-03-16T10:00:54;100762.84;;;8.17;68.58
34931;BME280;21134;49.646;8.560;2023-03-16T10:03:35;100754.97;;;8.02;66.12
34931;BME280;21134;49.646;8.560;2023-03-16T10:06:09;100750.94;;;8.19;67.53
34931;BME280;21134;49.646;8.560;2023-03-16T10:08:38;100756.94;;;8.21;66.51
34931;BME280;21134;49.646;8.560;2023-03-16T10:11:26;100739.03;;;8.18;67.00
34931;BME280;21134;49.646;8.560;2023-03-16T10:13:59;100730.84;;;8.41;66.90
34931;BME280;21134;49.646;8.560;2023-03-16T10:16:32;100734.28;;;8.43;67.08
34931;BME280;21134;49.646;8.560;2023-03-16T10:19:07;100731.81;;;8.52;67.31
34931;BME280;21134;49.646;8.560;2023-03-16T10:21:38;100729.34;;;8.58;66.38
34931;BME280;21134;49.646;8.560;2023-03-16T10:24:12;100740.53;;;8.71;66.22
34931;BME280;21134;49.646;8.560;2023-03-16T10:26:49;100746.59;;;8.82;66.06
34931;BME280;21134;49.646;8.560;2023-03-16T10:29:19;100738.34;;;9.09;64.37
34931;BME280;21134;49.646;8.560;2023-03-16T10:31:46;100732.22;;;8.89;64.31
34931;BME280;21134;49.646;8.560;2023-03-16T10:34:13;100728.16;;;9.11;65.29
34931;BME280;21134;49.646;8.560;2023-03-16T10:36:41;100729.91;;;9.13;64.48
34931;BME280;21134;49.646;8.560;2023-03-16T10:39:11;100727.34;;;9.15;64.16
34931;BME280;21134;49.646;8.560;2023-03-16T10:41:38;100734.19;;;9.19;64.41
34931;BME280;21134;49.646;8.560;2023-03-16T10:44:11;100730.13;;;9.44;62.41
34931;BME280;21134;49.646;8.560;2023-03-16T10:46:41;100730.91;;;9.34;62.19
34931;BME280;21134;49.646;8.560;2023-03-16T10:49:20;100737.75;;;9.41;62.92
34931;BME280;21134;49.646;8.560;2023-03-16T10:51:47;100720.78;;;9.46;62.84
34931;BME280;21134;49.646;8.560;2023-03-16T10:54:15;100725.03;;;9.45;62.33
34931;BME280;21134;49.646;8.560;2023-03-16T10:56:44;100724.25;;;9.51;61.95
34931;BME280;21134;49.646;8.560;2023-03-16T10:59:15;100726.03;;;9.66;61.44
34931;BME280;21134;49.646;8.560;2023-03-16T11:01:48;100721.78;;;9.68;60.79
34931;BME280;21134;49.646;8.560;2023-03-16T11:04:15;100720.22;;;9.94;59.66
34931;BME280;21134;49.646;8.560;2023-03-16T11:06:51;100712.59;;;9.99;59.36
34931;BME280;21134;49.646;8.560;2023-03-16T11:09:22;100710.91;;;9.99;60.17
34931;BME280;21134;49.646;8.560;2023-03-16T11:11:50;100711.84;;;10.23;60.06
34931;BME280;21134;49.646;8.560;2023-03-16T11:14:21;100718.69;;;10.25;58.54
34931;BME280;21134;49.646;8.560;2023-03-16T11:16:57;100715.28;;;10.27;58.86
34931;BME280;21134;49.646;8.560;2023-03-16T11:19:28;100705.09;;;10.28;58.44
34931;BME280;21134;49.646;8.560;2023-03-16T11:21:59;100700.84;;;10.36;58.36
34931;BME280;21134;49.646;8.560;2023-03-16T11:24:33;100694.03;;;10.43;58.81
34931;BME280;21134;49.646;8.560;2023-03-16T11:27:03;100687.22;;;10.50;58.60
34931;BME280;21134;49.646;8.560;2023-03-16T11:29:45;100684.69;;;10.65;58.42
34931;BME280;21134;49.646;8.560;2023-03-16T11:32:17;100682.19;;;10.76;58.11
34931;BME280;21134;49.646;8.560;2023-03-16T11:34:45;100678.75;;;10.78;56.43
34931;BME280;21134;49.646;8.560;2023-03-16T11:37:24;100686.41;;;10.64;56.40
34931;BME280;21134;49.646;8.560;2023-03-16T11:40:01;100685.56;;;10.61;56.04
34931;BME280;21134;49.646;8.560;2023-03-16T11:42:41;100677.94;;;10.85;57.47
34931;BME280;21134;49.646;8.560;2023-03-16T11:45:22;100677.06;;;10.94;57.05
34931;BME280;21134;49.646;8.560;2023-03-16T11:48:21;100685.63;;;11.11;56.96
34931;BME280;21134;49.646;8.560;2023-03-16T11:51:03;100680.50;;;11.17;56.18
34931;BME280;21134;49.646;8.560;2023-03-16T11:53:49;100682.19;;;11.08;53.79
34931;BME280;21134;49.646;8.560;2023-03-16T11:56:38;100670.25;;;11.11;54.88
34931;BME280;21134;49.646;8.560;2023-03-16T11:59:33;100665.09;;;11.37;55.25
34931;BME280;21134;49.646;8.560;2023-03-16T12:02:23;100659.13;;;11.03;53.21
34931;BME280;21134;49.646;8.560;2023-03-16T12:08:02;100649.75;;;10.93;53.99
34931;BME280;21134;49.646;8.560;2023-03-16T12:10:33;100645.50;;;10.98;53.95
34931;BME280;21134;49.646;8.560;2023-03-16T12:13:12;100636.97;;;11.11;54.81
34931;BME280;21134;49.646;8.560;2023-03-16T12:15:42;100636.06;;;11.31;54.16
34931;BME280;21134;49.646;8.560;2023-03-16T12:18:16;100636.06;;;11.31;55.01
34931;BME280;21134;49.646;8.560;2023-03-16T12:20:53;100629.25;;;11.36;55.90
34931;BME280;21134;49.646;8.560;2023-03-16T12:23:26;100623.25;;;11.37;56.05
34931;BME280;21134;49.646;8.560;2023-03-16T12:25:56;100626.63;;;11.54;56.22
34931;BME280;21134;49.646;8.560;2023-03-16T12:28:26;100622.34;;;11.62;54.94
34931;BME280;21134;49.646;8.560;2023-03-16T12:30:58;100623.19;;;11.57;53.73
34931;BME280;21134;49.646;8.560;2023-03-16T12:33:35;100617.19;;;11.61;53.59
34931;BME280;21134;49.646;8.560;2023-03-16T12:36:21;100623.19;;;11.57;53.62
34931;BME280;21134;49.646;8.560;2023-03-16T12:38:52;100617.19;;;11.69;53.67
34931;BME280;21134;49.646;8.560;2023-03-16T12:41:27;100616.25;;;11.83;53.67
34931;BME280;21134;49.646;8.560;2023-03-16T12:44:10;100613.66;;;12.00;52.86
34931;BME280;21134;49.646;8.560;2023-03-16T12:46:47;100605.06;;;12.09;52.98
34931;BME280;21134;49.646;8.560;2023-03-16T12:49:16;100608.41;;;12.22;52.47
34931;BME280;21134;49.646;8.560;2023-03-16T12:51:43;100602.56;;;12.03;50.46
34931;BME280;21134;49.646;8.560;2023-03-16T12:54:22;100605.84;;;12.22;52.07
34931;BME280;21134;49.646;8.560;2023-03-16T12:56:51;100595.56;;;12.22;51.47
34931;BME280;21134;49.646;8.560;2023-03-16T12:59:22;100595.56;;;12.22;51.18
34931;BME280;21134;49.646;8.560;2023-03-16T13:01:50;100586.84;;;12.52;49.92
34931;BME280;21134;49.646;8.560;2023-03-16T13:04:20;100580.88;;;12.48;48.92
34931;BME280;21134;49.646;8.560;2023-03-16T13:06:51;100577.50;;;12.45;50.70